Flight Track Log - Related Links

Times and Time Zones

All times are in EDT time to prevent confusion due to time zone crossing. See the UAL4596 flight status page for this flight to view local times or setup timezone preferences in your user account.

Time Position Orientation Groundspeed Altitude Reporting Facility
EDT Latitude Longitude Course Direction KTS MPH feet Rate Location/Type
Wed 03:18:29 PM 40.7167 -74.1500 294° West 172 198 5,500  Level New York TRACON
Wed 03:19:29 PM 40.7500 -74.1000 49° Northeast 216 249 3,100 -850 Descending New York TRACON
Wed 03:20:29 PM 40.8167 -74.1333 339° North 247 284 3,800 1,143 Climbing New York TRACON
Wed 03:21:00 PM 40.7474 -74.6709 277° West  Level FlightAware Approximate
Wed 03:21:35 PM 40.8500 -74.2167 298° West 255 293 5,500  Level New York TRACON
Wed 03:22:00 PM 40.7579 -74.8018 276° West  Level FlightAware Approximate
Wed 03:22:29 PM 40.8333 -74.3000 255° West 242 278 8,000  Level New York TRACON
Wed 03:23:00 PM 40.7716 -74.9316 294° West  Level FlightAware Approximate
Wed 03:23:29 PM 40.8333 -74.3833 270° West 254 292 10,300  Level New York TRACON
Wed 03:24:29 PM 40.8333 -74.4833 270° West 270 311 11,800 1,174 Climbing New York TRACON
Wed 03:25:47 PM 40.8258 -74.6267 266° West 304 350 13,000 1,130 Climbing New York Center
Wed 03:26:47 PM 40.8197 -74.7442 266° West 320 368 14,400 1,300 Climbing New York Center
Wed 03:27:47 PM 40.8156 -74.8675 267° West 331 381 15,600 1,412 Climbing New York Center
Wed 03:28:46 PM 40.8092 -74.9903 266° West 331 381 17,200 1,160 Climbing New York Center
Wed 03:29:46 PM 40.8047 -75.1136 267° West 336 387 17,900 793 Climbing New York Center
Wed 03:30:47 PM 40.7875 -75.2383 260° West 349 402 18,800 942 Climbing New York Center
Wed 03:31:47 PM 40.7683 -75.3578 258° West 354 407 19,800 1,190 Climbing New York Center
Wed 03:32:48 PM 40.7253 -75.4972 248° West 364 419 21,200 1,210 Climbing New York Center
Wed 03:33:46 PM 40.6767 -75.6200 242° Southwest 369 425 22,200 1,008 Climbing New York Center
Wed 03:34:47 PM 40.6339 -75.7453 246° West 379 436 23,200 1,400 Climbing New York Center
Wed 03:35:46 PM 40.5850 -75.8675 242° Southwest 379 436 25,000 1,462 Climbing New York Center
Wed 03:36:46 PM 40.5406 -75.9761 242° Southwest 379 436 26,100 1,082 Climbing New York Center
Wed 03:37:48 PM 40.4958 -76.0931 243° Southwest 379 436 27,200 1,000 Climbing New York Center
Wed 03:38:46 PM 40.4506 -76.2150 244° Southwest 379 436 28,100 950 Climbing New York Center
Wed 03:39:48 PM 40.4156 -76.3403 250° West 373 429 29,100 984 Climbing New York Center
Wed 03:40:48 PM 40.3847 -76.4633 252° West 363 418 30,100 992 Climbing New York Center
Wed 03:41:49 PM 40.3497 -76.5856 249° West 363 418 31,100 1,017 Climbing New York Center
Wed 03:42:46 PM 40.3164 -76.7108 251° West 363 418 32,100 1,026 Climbing New York Center
Wed 03:43:46 PM 40.2828 -76.8358 251° West 363 418 33,100 992 Climbing New York Center
Wed 03:44:47 PM 40.2472 -76.9606 250° West 363 418 34,100 992 Climbing New York Center
Wed 03:45:47 PM 40.2156 -77.0828 251° West 363 418 35,100 893 Climbing New York Center
Wed 03:46:48 PM 40.2006 -77.2092 261° West 358 412 35,900 185 Climbing New York Center
Wed 03:50:39 PM 40.1811 -77.7133 267° West 355 409 36,000 21 Climbing Cleveland Center
Wed 03:51:39 PM 40.1781 -77.8467 268° West 355 409 36,000  Level Cleveland Center
Wed 03:52:39 PM 40.1792 -77.9744 271° West 361 415 36,000  Level Cleveland Center
Wed 03:53:39 PM 40.1778 -78.1075 269° West 366 421 36,000  Level Cleveland Center
Wed 03:54:39 PM 40.1764 -78.2381 269° West 366 421 36,000  Level Cleveland Center
Wed 03:55:39 PM 40.1769 -78.3711 270° West 366 421 36,000  Level Cleveland Center
Wed 03:56:39 PM 40.1753 -78.5044 269° West 366 421 36,000  Level Cleveland Center
Wed 03:57:39 PM 40.1714 -78.6350 268° West 366 421 36,000  Level Cleveland Center
Wed 03:58:39 PM 40.1694 -78.7681 269° West 366 421 36,000  Level Cleveland Center
Wed 03:59:39 PM 40.1694 -78.9014 270° West 366 421 36,000  Level Cleveland Center
Wed 04:00:39 PM 40.1672 -79.0344 269° West 366 421 36,000  Level Cleveland Center
Wed 04:01:39 PM 40.1647 -79.1731 269° West 366 421 36,000  Level Cleveland Center
Wed 04:02:39 PM 40.1622 -79.3064 269° West 366 421 36,000  Level Cleveland Center
Wed 04:03:39 PM 40.1617 -79.4447 270° West 366 421 36,000  Level Cleveland Center
Wed 04:04:39 PM 40.1586 -79.5808 268° West 371 427 36,000  Level Cleveland Center
Wed 04:05:39 PM 40.1556 -79.7167 268° West 376 433 36,000  Level Cleveland Center
Wed 04:06:39 PM 40.1544 -79.8525 269° West 381 438 36,000  Level Cleveland Center
Wed 04:07:39 PM 40.1489 -79.9908 267° West 381 438 36,000  Level Cleveland Center
Wed 04:08:39 PM 40.1475 -80.1294 269° West 381 438 36,000  Level Cleveland Center
Wed 04:09:39 PM 40.1397 -80.2681 266° West 381 438 36,000  Level Cleveland Center
Wed 04:10:39 PM 40.1378 -80.3931 269° West 383 441 36,000  Level Cleveland Center
Wed 04:11:39 PM 40.1339 -80.5314 268° West 383 441 36,000  Level Cleveland Center
Wed 04:12:39 PM 40.1317 -80.6728 269° West 383 441 36,000  Level Cleveland Center
Wed 04:13:39 PM 40.1275 -80.8139 268° West 383 441 36,000  Level Cleveland Center
Wed 04:15:59 PM 40.1131 -81.1547 267° West 389 448 36,000  Level Indianapolis Center
Wed 04:17:01 PM 40.1078 -81.2992 267° West 393 452 36,000  Level Indianapolis Center
Wed 04:18:03 PM 40.1028 -81.4442 267° West 395 455 36,000  Level Indianapolis Center
Wed 04:19:05 PM 40.0972 -81.5889 267° West 397 457 36,000  Level Indianapolis Center
Wed 04:20:07 PM 40.0914 -81.7353 267° West 400 460 36,000 -48 Level Indianapolis Center
Wed 04:21:09 PM 40.0850 -81.8978 267° West 404 465 35,900  Descending Indianapolis Center
Wed 04:22:11 PM 40.0789 -82.0431 267° West 399 459 36,000  Climbing Indianapolis Center
Wed 04:23:12 PM 40.0722 -82.1919 267° West 406 467 35,900 -49 Descending Indianapolis Center
Wed 04:24:14 PM 40.0661 -82.3406 267° West 408 470 35,900  Level Indianapolis Center
Wed 04:25:16 PM 40.0597 -82.4892 267° West 409 471 35,900 48 Level Indianapolis Center
Wed 04:26:18 PM 40.0517 -82.6369 266° West 406 467 36,000  Climbing Indianapolis Center
Wed 04:27:20 PM 40.0461 -82.7817 267° West 399 459 35,900 -48 Descending Indianapolis Center
Wed 04:28:22 PM 40.0378 -82.9467 266° West 389 448 35,900  Level Indianapolis Center
Wed 04:29:24 PM 40.0306 -83.0872 266° West 385 443 35,900  Level Indianapolis Center
Wed 04:30:26 PM 40.0231 -83.2294 266° West 391 450 35,900  Level Indianapolis Center
Wed 04:31:28 PM 40.0158 -83.3747 266° West 400 460 35,900  Level Indianapolis Center
Wed 04:32:30 PM 40.0078 -83.5192 266° West 402 463 35,900  Level Indianapolis Center
Wed 04:33:32 PM 39.9975 -83.6869 265° West 399 459 35,900  Level Indianapolis Center
Wed 04:34:34 PM 39.9897 -83.8319 266° West 401 461 35,900  Level Indianapolis Center
Wed 04:35:36 PM 39.9811 -83.9778 266° West 402 463 35,900  Level Indianapolis Center
Wed 04:36:38 PM 39.9717 -84.1244 265° West 403 464 35,900  Level Indianapolis Center
Wed 04:37:40 PM 39.9631 -84.2708 266° West 403 464 35,900 48 Level Indianapolis Center
Wed 04:38:42 PM 39.9539 -84.4144 265° West 398 458 36,000  Climbing Indianapolis Center
Wed 04:39:44 PM 39.9447 -84.5569 265° West 393 452 35,900 -48 Descending Indianapolis Center
Wed 04:40:46 PM 39.9344 -84.7217 265° West 388 447 35,900  Level Indianapolis Center
Wed 04:41:48 PM 39.9236 -84.8611 264° West 384 442 35,900  Level Indianapolis Center
Wed 04:42:50 PM 39.9128 -84.9994 264° West 382 440 35,900  Level Indianapolis Center
Wed 04:43:52 PM 39.8914 -85.1369 259° West 382 440 35,900  Level Indianapolis Center
Wed 04:44:54 PM 39.8692 -85.2719 258° West 378 435 35,900  Level Indianapolis Center
Wed 04:45:56 PM 39.8492 -85.3964 258° West 353 406 35,900 -683 Level Indianapolis Center
Wed 04:46:57 PM 39.8294 -85.5264 259° West 362 417 34,500 -976 Descending Indianapolis Center
Wed 04:47:59 PM 39.8025 -85.6856 258° West 380 437 33,900 -290 Descending Indianapolis Center
Wed 04:49:01 PM 39.7814 -85.8200 258° West 379 436 33,900 48 Level Indianapolis Center
Wed 04:50:03 PM 39.7608 -85.9383 257° West 375 432 34,000 48 Climbing Indianapolis Center
Wed 04:51:05 PM 39.7397 -86.0686 258° West 371 427 34,000  Level Indianapolis Center
Wed 04:52:07 PM 39.7136 -86.2269 258° West 373 429 34,000  Level Indianapolis Center
Wed 04:53:09 PM 39.6908 -86.3608 258° West 377 434 34,000  Level Indianapolis Center
Wed 04:54:10 PM 39.6661 -86.5014 257° West 393 452 34,000  Level Indianapolis Center
Wed 04:55:12 PM 39.6411 -86.6458 257° West 408 470 34,000 -48 Level Indianapolis Center
Wed 04:56:14 PM 39.6158 -86.7922 257° West 415 478 33,900 -919 Descending Indianapolis Center
Wed 04:57:16 PM 39.5917 -86.9339 258° West 405 466 32,100 -1,839 Descending Indianapolis Center
Wed 04:58:18 PM 39.5669 -87.0739 257° West 401 461 30,100 -1,016 Descending Indianapolis Center
Wed 04:59:20 PM 39.5381 -87.2325 257° West 377 434 30,000 -780 Descending Indianapolis Center
Wed 05:00:21 PM 39.5153 -87.3603 257° West 366 421 28,500 -976 Descending Indianapolis Center
Wed 05:01:23 PM 39.4931 -87.4850 257° West 359 413 28,000 -242 Descending Indianapolis Center
Wed 05:02:25 PM 39.4708 -87.6103 257° West 357 411 28,000  Level Indianapolis Center
Wed 05:03:27 PM 39.4469 -87.7372 256° West 362 417 28,000  Level Indianapolis Center
Wed 05:04:29 PM 39.4242 -87.8650 257° West 364 419 28,000  Level Indianapolis Center
Wed 05:05:31 PM 39.4014 -87.9942 257° West 367 422 28,000 -242 Level Indianapolis Center
Wed 05:06:33 PM 39.3656 -88.1461 253° West 367 422 27,500 -550 Descending Indianapolis Center
Wed 05:07:31 PM 39.3364 -88.2519 250° West 374 430 26,900 -885 Descending Kansas City Center
Wed 05:08:35 PM 39.2969 -88.4053 252° West 375 432 25,700 -1,065 Descending Kansas City Center
Wed 05:09:35 PM 39.2617 -88.5369 251° West 383 441 24,700 -919 Descending Kansas City Center
Wed 05:10:39 PM 39.2250 -88.6706 251° West 387 445 23,800 -672 Descending Kansas City Center
Wed 05:11:40 PM 39.1914 -88.8017 252° West 388 447 23,300 -1,131 Descending Kansas City Center
Wed 05:12:41 PM 39.1589 -88.9178 250° West 352 405 21,500 -1,776 Descending Kansas City Center
Wed 05:13:45 PM 39.1272 -89.0350 251° West 316 364 19,600 -1,584 Descending Kansas City Center
Wed 05:14:46 PM 39.0981 -89.1419 251° West 317 365 18,200 -1,570 Descending Kansas City Center
Wed 05:15:32 PM 39.0800 -89.1758 236° Southwest 324 373 16,800 -1,662 Descending FAA TRACON SMA TRACON (SMA)
Wed 05:15:51 PM 39.0703 -89.2100 250° West 329 379 16,400 -1,385 Descending FAA TRACON SMA TRACON (SMA)
Wed 05:16:11 PM 39.0606 -89.2536 254° West 331 381 15,900 -1,350 Descending FAA TRACON SMA TRACON (SMA)
Wed 05:16:31 PM 39.0519 -89.2878 252° West 327 376 15,500 -1,024 Descending FAA TRACON SMA TRACON (SMA)
Wed 05:16:52 PM 39.0450 -89.3222 255° West 325 374 15,200 -900 Descending FAA TRACON SMA TRACON (SMA)
Wed 05:17:11 PM 39.0339 -89.3633 251° West 318 366 14,900 -462 Descending FAA TRACON SMA TRACON (SMA)
Wed 05:17:31 PM 39.0267 -89.3967 254° West 314 361 14,900  Level FAA TRACON SMA TRACON (SMA)
Wed 05:17:51 PM 39.0183 -89.4292 252° West 311 358 14,900  Level FAA TRACON SMA TRACON (SMA)
Wed 05:18:11 PM 39.0097 -89.4692 255° West 304 350 14,900  Level FAA TRACON SMA TRACON (SMA)
Wed 05:18:31 PM 39.0025 -89.5008 254° West 299 344 14,900  Level FAA TRACON SMA TRACON (SMA)
Wed 05:18:51 PM 38.9950 -89.5322 253° West 297 342 14,900  Level FAA TRACON SMA TRACON (SMA)
Wed 05:19:10 PM 38.9831 -89.5714 249° West 304 350 14,900  Level FAA TRACON SMA TRACON (SMA)
Wed 05:19:31 PM 38.9728 -89.6039 248° West 316 364 14,900  Level FAA TRACON SMA TRACON (SMA)
Wed 05:19:51 PM 38.9617 -89.6369 247° West 326 375 14,900 -154 Level FAA TRACON SMA TRACON (SMA)
Wed 05:20:10 PM 38.9483 -89.6803 248° West 337 388 14,800 -900 Descending FAA TRACON SMA TRACON (SMA)
Wed 05:20:31 PM 38.9369 -89.7144 247° West 338 389 14,300 -1,610 Descending FAA TRACON SMA TRACON (SMA)
Wed 05:20:51 PM 38.9258 -89.7469 246° West 328 377 13,700 -2,100 Descending FAA TRACON SMA TRACON (SMA)
Wed 05:21:11 PM 38.9139 -89.7867 249° West 313 360 12,900 -2,100 Descending FAA TRACON SMA TRACON (SMA)
Wed 05:21:31 PM 38.9036 -89.8175 247° West 305 351 12,300 -1,800 Descending FAA TRACON SMA TRACON (SMA)
Wed 05:21:51 PM 38.8939 -89.8475 247° West 299 344 11,700 -2,000 Descending FAA TRACON SMA TRACON (SMA)
Wed 05:22:10 PM 38.8825 -89.8844 248° West 290 334 11,000 -1,756 Descending FAA TRACON SMA TRACON (SMA)
Wed 05:22:32 PM 38.8733 -89.9131 248° West 283 326 10,500 -1,317 Descending FAA TRACON SMA TRACON (SMA)
Wed 05:22:51 PM 38.8639 -89.9403 246° West 274 315 10,100 -1,385 Descending FAA TRACON SMA TRACON (SMA)
Wed 05:23:11 PM 38.8536 -89.9733 248° West 261 300 9,600 -1,500 Descending FAA TRACON SMA TRACON (SMA)
Wed 05:23:31 PM 38.8456 -89.9986 248° West 252 290 9,100 -1,500 Descending FAA TRACON SMA TRACON (SMA)
Wed 05:23:51 PM 38.8369 -90.0239 246° West 249 287 8,600 -1,610 Descending FAA TRACON SMA TRACON (SMA)
Wed 05:24:12 PM 38.8272 -90.0547 248° West 244 281 8,000 -1,050 Descending FAA TRACON SMA TRACON (SMA)
Wed 05:24:31 PM 38.8194 -90.0792 248° West 241 277 7,900 -154 Descending FAA TRACON SMA TRACON (SMA)
Wed 05:24:51 PM 38.8114 -90.1044 248° West 245 282 7,900  Level FAA TRACON SMA TRACON (SMA)
Wed 05:25:14 PM 38.8017 -90.1364 249° West 250 288 7,900  Level FAA TRACON SMA TRACON (SMA)
Wed 05:25:34 PM 38.8056 -90.1700 278° West 260 299 7,900  Level FAA TRACON SMA TRACON (SMA)
Wed 05:25:51 PM 38.8131 -90.1889 297° West 257 296 7,900  Level FAA TRACON SMA TRACON (SMA)
Wed 05:26:12 PM 38.8250 -90.2200 296° West 253 291 7,900  Level FAA TRACON SMA TRACON (SMA)
Wed 05:26:30 PM 38.8344 -90.2444 296° West 249 287 7,900 -308 Level FAA TRACON SMA TRACON (SMA)
Wed 05:26:51 PM 38.8428 -90.2675 295° West 237 273 7,700 -1,171 Descending FAA TRACON SMA TRACON (SMA)
Wed 05:27:11 PM 38.8533 -90.2958 296° West 229 264 7,100 -1,538 Descending FAA TRACON SMA TRACON (SMA)
Wed 05:27:30 PM 38.8619 -90.3186 296° West 230 265 6,700 -1,200 Descending FAA TRACON SMA TRACON (SMA)
Wed 05:27:51 PM 38.8706 -90.3408 296° West 228 262 6,300 -1,317 Descending FAA TRACON SMA TRACON (SMA)
Wed 05:28:11 PM 38.8817 -90.3681 298° West 225 259 5,800 -1,385 Descending FAA TRACON SMA TRACON (SMA)
Wed 05:28:30 PM 38.8906 -90.3906 297° West 225 259 5,400 -1,350 Descending FAA TRACON SMA TRACON (SMA)
Wed 05:28:51 PM 38.9000 -90.4122 299° West 226 260 4,900 -1,610 Descending FAA TRACON SMA TRACON (SMA)
Wed 05:29:11 PM 38.9114 -90.4397 298° West 227 261 4,300 -1,692 Descending FAA TRACON SMA TRACON (SMA)
Wed 05:29:30 PM 38.9208 -90.4625 298° West 232 267 3,800 -1,350 Descending FAA TRACON SMA TRACON (SMA)
Wed 05:29:51 PM 38.9297 -90.4914 292° West 231 266 3,400 -585 Descending FAA TRACON SMA TRACON (SMA)
Wed 05:30:11 PM 38.9233 -90.5122 248° West 232 267 3,400  Level FAA TRACON SMA TRACON (SMA)
Wed 05:30:30 PM 38.9089 -90.5247 214° Southwest 215 247 3,400  Level FAA TRACON SMA TRACON (SMA)
Wed 05:30:51 PM 38.8897 -90.5400 212° Southwest 208 239 3,400  Level FAA TRACON SMA TRACON (SMA)
Wed 05:31:11 PM 38.8744 -90.5369 171° South 206 237 3,400  Level FAA TRACON SMA TRACON (SMA)
Wed 05:31:30 PM 38.8606 -90.5239 144° Southeast 201 231 3,400  Level FAA TRACON SMA TRACON (SMA)
Wed 05:31:51 PM 38.8431 -90.5081 145° Southeast 200 230 3,400  Level FAA TRACON SMA TRACON (SMA)
Wed 05:32:11 PM 38.8325 -90.4922 131° Southeast 193 222 3,400 -300 Level FAA TRACON SMA TRACON (SMA)
Wed 05:32:31 PM 38.8242 -90.4758 123° Southeast 182 209 3,200 -600 Descending FAA TRACON SMA TRACON (SMA)

Login

Don't have an account? Register now (free) for customized features, flight alerts, and more!